Time;durP1;ratioP1;P1;durP2;ratioP2;P2;SDS_P1;SDS_P2;PMS_P1;PMS_P2;Temp;Humidity;BMP_temperature;BMP_pressure;BME280_temperature;BME280_humidity;BME280_pressure;Samples;Min_cycle;Max_cycle;Signal;HPM_P1;HPM_P2
2022/12/24 00:01:36;;;;;;;3.60;3.00;;;9.30;99.90;;;-141.84;93.65;18082.66;5053430;28;20185;-57
2022/12/24 00:04:05;;;;;;;3.20;2.80;;;9.30;99.90;;;-141.84;93.95;18080.63;5054097;28;20205;-63
2022/12/24 00:06:33;;;;;;;3.10;2.80;;;9.30;99.90;;;-141.84;93.18;18048.13;5052946;28;20692;-64
2022/12/24 00:09:01;;;;;;;3.37;2.80;;;9.40;99.90;;;-141.84;93.28;18082.66;5053254;28;20221;-64
2022/12/24 00:11:29;;;;;;;4.30;2.90;;;9.40;99.90;;;-141.84;93.28;18056.25;5051966;28;20248;-63
2022/12/24 00:13:58;;;;;;;3.83;2.73;;;9.40;99.90;;;-141.84;92.67;18088.75;5053157;28;20277;-64
2022/12/24 00:16:28;;;;;;;3.50;3.00;;;9.50;99.90;;;-141.84;92.25;18092.81;5053569;28;20224;-63
2022/12/24 00:18:56;;;;;;;3.63;2.63;;;9.50;99.90;;;-141.84;91.36;18119.22;5053227;28;20217;-64
2022/12/24 00:21:25;;;;;;;5.40;2.87;;;9.60;99.90;;;-141.84;91.69;18127.34;5052582;28;20235;-64
2022/12/24 00:23:53;;;;;;;5.87;3.03;;;9.60;99.90;;;-141.84;91.65;18094.84;5052900;28;20259;-63
2022/12/24 00:26:21;;;;;;;6.23;3.50;;;9.60;99.90;;;-141.84;92.21;18100.94;5052435;28;20240;-63
2022/12/24 00:28:50;;;;;;;5.73;3.97;;;9.60;99.90;;;-141.84;92.49;18105.00;5052395;28;20205;-64
2022/12/24 00:31:19;;;;;;;8.90;4.23;;;9.60;99.90;;;-141.84;92.37;18092.81;5053151;28;20206;-64
2022/12/24 00:33:48;;;;;;;7.63;4.03;;;9.60;99.90;;;-141.84;92.88;18109.06;5052638;28;20304;-64
2022/12/24 00:36:18;;;;;;;6.73;4.10;;;9.50;99.90;;;-141.84;93.18;18109.06;5052421;28;20232;-64
2022/12/24 00:38:47;;;;;;;9.23;3.93;;;9.50;99.90;;;-141.84;93.21;18084.69;5052454;28;20225;-63
2022/12/24 00:41:24;;;;;;;8.43;4.37;;;9.60;99.90;;;-141.84;92.63;18127.34;5051967;28;20229;-63
2022/12/24 00:43:54;;;;;;;7.43;3.93;;;9.60;99.90;;;-141.84;92.71;18098.91;5052495;28;20279;-64
2022/12/24 00:46:23;;;;;;;7.70;4.33;;;9.50;99.90;;;-141.84;92.65;18068.44;5052870;28;20204;-63
2022/12/24 00:48:53;;;;;;;6.80;3.40;;;9.50;99.90;;;-141.84;92.85;18088.75;5063584;28;20218;-63
2022/12/24 00:51:23;;;;;;;9.77;4.03;;;9.50;99.90;;;-141.84;92.73;18115.16;5071760;28;20243;-64
2022/12/24 00:53:52;;;;;;;9.60;3.57;;;9.50;99.90;;;-141.84;92.96;18094.84;5072242;28;20797;-63
2022/12/24 00:56:21;;;;;;;10.40;3.20;;;9.50;99.90;;;-141.84;93.06;18076.56;5053175;28;20229;-63
2022/12/24 00:58:49;;;;;;;6.27;2.87;;;9.50;99.90;;;-141.84;92.02;18082.66;5051839;28;20682;-62
2022/12/24 01:01:18;;;;;;;8.87;3.37;;;9.60;99.90;;;-141.84;91.71;18109.06;5052483;28;20221;-63
2022/12/24 01:03:46;;;;;;;7.63;3.20;;;9.50;99.90;;;-141.84;91.12;18086.72;5051781;28;20225;-63
2022/12/24 01:06:20;;;;;;;8.57;3.20;;;9.60;99.90;;;-141.84;90.38;18176.09;5051533;28;20260;-63
2022/12/24 01:08:51;;;;;;;8.63;2.90;;;9.60;99.90;;;-141.84;89.00;18151.72;5051865;28;20569;-64
2022/12/24 01:11:19;;;;;;;12.77;3.27;;;9.70;99.90;;;-141.84;89.10;18113.13;5051960;28;20307;-63
2022/12/24 01:13:47;;;;;;;9.97;3.27;;;9.60;99.90;;;-141.84;88.91;18159.84;5051548;28;20684;-63
2022/12/24 01:16:19;;;;;;;8.77;3.07;;;9.70;99.90;;;-141.84;89.29;18159.84;5052289;28;20205;-63
2022/12/24 01:18:47;;;;;;;11.07;3.60;;;9.60;99.90;;;-141.84;88.97;18147.66;5052070;28;20284;-63
2022/12/24 01:21:17;;;;;;;7.13;2.90;;;9.60;99.90;;;-141.84;88.52;18165.94;5051914;28;20240;-63
2022/12/24 01:23:45;;;;;;;8.23;2.93;;;9.70;99.90;;;-141.84;88.75;18143.59;5051673;28;20312;-64
2022/12/24 01:26:13;;;;;;;8.67;2.83;;;9.70;99.90;;;-141.84;88.93;18123.28;5051628;28;20579;-64
2022/12/24 01:28:42;;;;;;;6.77;2.80;;;9.60;99.90;;;-141.84;88.63;18172.03;5051382;28;20216;-63
2022/12/24 01:31:12;;;;;;;7.07;2.73;;;9.60;99.90;;;-141.84;88.07;18174.06;5052069;28;20255;-64
2022/12/24 01:33:42;;;;;;;8.23;3.00;;;9.60;99.90;;;-141.84;88.29;18145.63;5051650;28;20225;-64
2022/12/24 01:36:11;;;;;;;8.83;2.90;;;9.70;99.90;;;-141.84;87.71;18143.59;5050884;28;20225;-63
2022/12/24 01:38:41;;;;;;;9.40;3.23;;;9.70;99.90;;;-141.84;87.44;18159.84;5051800;28;20300;-62
2022/12/24 01:44:26;;;;;;;9.73;2.93;;;9.70;99.90;;;-141.84;88.30;18174.06;5051631;28;20221;-64
2022/12/24 01:47:11;;;;;;;8.30;3.03;;;9.60;99.90;;;-141.84;87.66;18161.88;5047525;28;20305;-63
2022/12/24 01:49:46;;;;;;;7.97;3.00;;;9.70;99.90;;;-141.84;87.75;18172.03;5066837;28;20189;-64
2022/12/24 01:52:20;;;;;;;4.57;2.43;;;9.70;99.90;;;-141.84;88.47;18180.16;5071416;28;20220;-63
2022/12/24 01:54:55;;;;;;;7.80;2.70;;;9.60;99.90;;;-141.84;87.56;18202.50;5064802;28;20220;-64
2022/12/24 01:57:29;;;;;;;7.93;2.80;;;9.70;99.90;;;-141.84;87.12;18202.50;5051005;28;20229;-64
2022/12/24 02:00:05;;;;;;;6.97;2.97;;;9.70;99.90;;;-141.84;87.06;18172.03;5051000;28;20315;-63
2022/12/24 02:02:35;;;;;;;9.20;2.53;;;9.70;99.90;;;-141.84;87.14;18200.47;5050963;28;20232;-63
2022/12/24 02:05:10;;;;;;;6.67;2.60;;;9.70;99.90;;;-141.84;87.42;18172.03;5051305;28;20563;-63
2022/12/24 02:07:39;;;;;;;6.27;2.30;;;9.70;99.90;;;-141.84;86.89;18178.13;5050962;28;20185;-63
2022/12/24 02:10:13;;;;;;;9.20;2.43;;;9.70;99.90;;;-141.84;87.14;18178.13;5051746;28;20208;-64
2022/12/24 02:12:44;;;;;;;6.50;2.40;;;9.70;99.90;;;-141.84;87.62;18202.50;5050777;28;20229;-64
2022/12/24 02:15:16;;;;;;;9.17;2.43;;;9.70;99.90;;;-141.84;87.80;18200.47;5051039;28;20225;-63
2022/12/24 02:17:59;;;;;;;11.43;3.20;;;9.60;99.90;;;-141.84;87.81;18165.94;5050887;28;20236;-63
2022/12/24 02:21:08;;;;;;;9.03;2.77;;;9.60;99.90;;;-141.84;87.26;18194.38;5050935;28;20233;-63
2022/12/24 02:24:30;;;;;;;8.03;2.90;;;9.70;99.90;;;-141.84;87.11;18202.50;5050563;28;20232;-62
2022/12/24 02:27:20;;;;;;;10.33;2.33;;;9.70;99.90;;;-141.84;86.30;18212.66;5043199;28;20233;-63
2022/12/24 02:30:19;;;;;;;7.30;2.63;;;9.70;99.90;;;-141.84;85.98;18200.47;5050538;28;20217;-64
2022/12/24 02:33:15;;;;;;;7.70;2.60;;;9.70;99.90;;;-141.84;85.55;18214.69;5030652;28;20221;-64
2022/12/24 02:35:53;;;;;;;6.57;2.57;;;9.80;99.90;;;-141.84;85.35;18226.88;5054873;28;20228;-64
2022/12/24 02:38:30;;;;;;;8.80;2.43;;;9.80;99.90;;;-141.84;85.08;18224.84;5054728;28;20711;-64
2022/12/24 02:41:05;;;;;;;7.90;2.50;;;9.80;99.90;;;-141.84;85.46;18206.56;5054564;28;20316;-63
2022/12/24 02:43:38;;;;;;;10.30;2.33;;;9.80;99.90;;;-141.84;84.84;18216.72;5054721;28;20189;-63
2022/12/24 02:46:13;;;;;;;10.17;2.70;;;9.90;99.90;;;-141.84;84.70;18237.06;5055380;28;20209;-63
2022/12/24 02:48:47;;;;;;;9.60;3.40;;;9.90;99.90;;;-141.84;84.42;18243.16;5056667;28;20240;-64
2022/12/24 02:51:17;;;;;;;7.30;2.27;;;9.90;99.90;;;-141.84;84.90;18249.25;5074314;28;20236;-64
2022/12/24 02:53:45;;;;;;;4.00;2.27;;;9.90;99.90;;;-141.84;85.22;18228.91;5074299;28;20216;-61
2022/12/24 02:56:35;;;;;;;9.87;2.57;;;9.90;99.90;;;-141.84;84.94;18245.19;5056710;28;20229;-63
2022/12/24 02:59:27;;;;;;;8.13;2.27;;;9.80;99.90;;;-141.84;85.68;18226.88;5054416;28;20244;-64
2022/12/24 03:02:18;;;;;;;9.57;2.73;;;9.80;99.90;;;-141.84;85.24;18273.63;5054566;28;20229;-64
2022/12/24 03:04:57;;;;;;;4.70;2.00;;;9.80;99.90;;;-141.84;84.42;18255.34;5054372;28;20323;-64
2022/12/24 03:07:36;;;;;;;7.83;2.60;;;9.90;99.90;;;-141.84;83.47;18259.41;5054991;28;20190;-65
2022/12/24 03:10:21;;;;;;;4.93;2.20;;;9.90;99.90;;;-141.84;83.73;18259.41;5054826;28;20217;-63
2022/12/24 03:12:54;;;;;;;8.00;2.20;;;9.90;99.90;;;-141.84;84.66;18257.38;5054085;28;20229;-64
2022/12/24 03:15:26;;;;;;;5.70;2.00;;;9.80;99.90;;;-141.84;84.27;18275.66;5054482;28;20251;-63
2022/12/24 03:18:01;;;;;;;4.30;2.07;;;9.80;99.90;;;-141.84;83.50;18285.81;5054090;28;20240;-64
2022/12/24 03:20:36;;;;;;;4.63;2.53;;;9.80;99.90;;;-141.84;83.95;18287.84;5054024;28;20704;-63
2022/12/24 03:23:05;;;;;;;7.67;2.10;;;9.80;99.90;;;-141.84;83.41;18293.94;5046852;28;20610;-64
2022/12/24 03:25:35;;;;;;;3.97;1.73;;;9.80;99.90;;;-141.84;83.22;18275.66;5053993;28;20205;-62
2022/12/24 03:28:07;;;;;;;6.70;2.27;;;9.80;99.90;;;-141.84;82.88;18263.47;5053962;28;20224;-64
2022/12/24 03:30:38;;;;;;;6.67;1.80;;;9.80;99.90;;;-141.84;82.59;18257.38;5053877;28;20229;-63
2022/12/24 03:33:08;;;;;;;6.37;2.23;;;9.80;99.90;;;-141.84;82.00;18310.19;5053709;28;20744;-62
2022/12/24 03:35:37;;;;;;;4.47;2.17;;;9.90;99.90;;;-141.84;81.86;18306.13;5052338;28;20736;-63
2022/12/24 03:38:06;;;;;;;5.17;2.07;;;9.90;99.90;;;-141.84;82.35;18302.06;5053496;28;20767;-63
2022/12/24 03:40:34;;;;;;;6.80;2.10;;;9.80;99.90;;;-141.84;82.37;18298.00;5053622;28;20767;-63
2022/12/24 03:43:02;;;;;;;4.87;2.17;;;9.90;99.90;;;-141.84;82.46;18306.13;5054148;28;20227;-63
2022/12/24 03:45:30;;;;;;;5.23;2.00;;;9.90;99.90;;;-141.84;82.51;18330.50;5053581;28;20225;-63
2022/12/24 03:47:58;;;;;;;5.83;1.77;;;9.80;99.90;;;-141.84;82.90;18285.81;5049946;28;20282;-63
2022/12/24 03:50:28;;;;;;;3.97;1.80;;;9.80;99.90;;;-141.84;82.14;18316.28;5073453;28;20239;-63
2022/12/24 03:52:56;;;;;;;4.83;1.83;;;9.90;99.90;;;-141.84;81.59;18306.13;5073321;28;20233;-63
2022/12/24 03:55:24;;;;;;;4.63;2.57;;;9.90;99.90;;;-141.84;81.71;18326.44;5062798;28;20220;-64
2022/12/24 03:57:52;;;;;;;6.07;2.37;;;9.90;99.90;;;-141.84;81.80;18291.91;5053439;28;20851;-63
2022/12/24 04:00:21;;;;;;;5.77;2.30;;;9.80;99.90;;;-141.84;81.08;18328.47;5053407;28;20230;-63
2022/12/24 04:02:49;;;;;;;4.67;2.40;;;9.90;99.90;;;-141.84;80.81;18318.31;5053209;28;20226;-63
2022/12/24 04:05:21;;;;;;;7.97;2.47;;;9.90;99.90;;;-141.84;80.71;18338.63;5053300;28;20244;-63
2022/12/24 04:07:50;;;;;;;7.23;2.57;;;9.90;99.90;;;-141.84;80.73;18342.69;5054082;28;20181;-63
2022/12/24 04:10:19;;;;;;;6.40;2.50;;;9.90;99.90;;;-141.84;79.10;18391.44;5053733;28;20202;-63
2022/12/24 04:12:47;;;;;;;6.47;2.53;;;10.00;99.90;;;-141.84;78.87;18379.25;5053218;28;20222;-64
2022/12/24 04:15:15;;;;;;;4.90;2.37;;;10.00;99.90;;;-141.84;79.61;18375.19;5053081;28;20236;-63
2022/12/24 04:17:43;;;;;;;3.07;2.03;;;10.00;99.90;;;-141.84;79.61;18346.75;5052891;28;20229;-63
2022/12/24 04:20:12;;;;;;;5.90;2.57;;;9.90;99.90;;;-141.84;79.70;18373.16;5053020;28;20232;-63
2022/12/24 04:22:40;;;;;;;3.50;1.90;;;9.90;99.90;;;-141.84;79.44;18363.00;5052955;28;20217;-63
2022/12/24 04:25:11;;;;;;;6.43;2.03;;;9.90;99.90;;;-141.84;78.75;18403.63;5053300;28;20259;-63
2022/12/24 04:27:39;;;;;;;6.30;2.00;;;10.00;99.90;;;-141.84;78.99;18393.47;5052906;28;20225;-64
2022/12/24 04:30:09;;;;;;;3.17;1.90;;;9.90;99.90;;;-141.84;78.90;18379.25;5052853;28;20229;-64
2022/12/24 04:32:37;;;;;;;6.30;2.17;;;9.90;99.90;;;-141.84;78.89;18389.41;5052974;28;20231;-63
2022/12/24 04:35:06;;;;;;;3.97;2.10;;;10.00;99.90;;;-141.84;78.66;18403.63;5052735;28;20233;-62
2022/12/24 04:37:35;;;;;;;4.40;2.00;;;10.00;99.90;;;-141.84;78.18;18458.50;5052802;28;20209;-63
2022/12/24 04:40:03;;;;;;;3.70;1.77;;;10.00;99.90;;;-141.84;78.15;18411.75;5053151;28;20715;-63
2022/12/24 04:42:33;;;;;;;6.43;2.17;;;10.00;99.90;;;-141.84;78.68;18421.91;5052489;28;20669;-63
2022/12/24 04:45:01;;;;;;;4.50;2.00;;;10.00;99.90;;;-141.84;78.29;18405.66;5052643;28;20227;-63
2022/12/24 04:47:29;;;;;;;6.63;2.03;;;10.00;99.90;;;-141.84;77.71;18448.34;5045061;28;20701;-63
2022/12/24 04:49:58;;;;;;;4.67;1.80;;;10.00;99.90;;;-141.84;78.09;18415.81;5056539;28;20806;-64
2022/12/24 04:52:26;;;;;;;9.83;2.70;;;10.00;99.90;;;-141.84;78.08;18448.34;5072687;28;20240;-64
2022/12/24 04:54:54;;;;;;;3.67;2.07;;;10.00;99.90;;;-141.84;77.89;18436.16;5065258;28;20225;-63
2022/12/24 04:57:22;;;;;;;6.90;2.27;;;10.00;99.90;;;-141.84;78.12;18428.03;5051948;28;20229;-64
2022/12/24 04:59:51;;;;;;;5.30;2.20;;;10.00;99.90;;;-141.84;77.21;18444.28;5052227;28;21070;-63
2022/12/24 05:02:20;;;;;;;5.87;2.33;;;10.00;99.90;;;-141.84;77.10;18450.38;5052435;28;20654;-62
2022/12/24 05:04:48;;;;;;;4.33;1.93;;;10.00;99.90;;;-141.84;77.81;18415.81;5052186;28;20363;-65
2022/12/24 05:07:16;;;;;;;4.50;2.50;;;10.00;99.90;;;-141.84;77.14;18442.25;5052701;28;20677;-64
2022/12/24 05:09:44;;;;;;;4.13;2.00;;;10.00;99.90;;;-141.84;76.88;18458.50;5051896;28;20275;-64
2022/12/24 05:12:13;;;;;;;5.10;2.50;;;10.00;99.90;;;-141.84;76.64;18495.06;5051894;28;20747;-63
2022/12/24 05:14:41;;;;;;;4.57;2.30;;;10.10;99.90;;;-141.84;77.47;18444.28;5052034;28;20225;-63
2022/12/24 05:17:10;;;;;;;5.30;2.37;;;10.00;99.90;;;-141.84;77.94;18446.31;5051842;28;20231;-63
2022/12/24 05:19:38;;;;;;;6.60;2.37;;;9.90;99.90;;;-141.84;77.77;18428.03;5052072;28;20206;-64
2022/12/24 05:27:38;;;;;;;7.10;2.50;;;9.80;99.90;;;-141.84;77.42;18442.25;5051456;28;20737;-64
2022/12/24 05:30:08;;;;;;;8.10;2.90;;;9.80;99.90;;;-141.84;77.58;18456.47;5051579;28;20747;-64
2022/12/24 05:32:38;;;;;;;7.20;2.63;;;9.80;99.90;;;-141.84;78.20;18458.50;5051927;28;20225;-63
2022/12/24 05:35:07;;;;;;;5.73;2.60;;;9.70;99.90;;;-141.84;77.99;18425.97;5051492;28;20229;-63
2022/12/24 05:37:35;;;;;;;8.50;2.53;;;9.70;99.90;;;-141.84;78.65;18419.88;5051601;28;20205;-64
2022/12/24 05:40:03;;;;;;;6.63;2.83;;;9.60;99.90;;;-141.84;78.42;18417.84;5052165;28;20615;-64
2022/12/24 05:42:31;;;;;;;5.83;2.80;;;9.60;99.90;;;-141.84;78.28;18415.81;5051272;28;20225;-63
2022/12/24 05:45:00;;;;;;;9.23;2.87;;;9.60;99.90;;;-141.84;78.91;18395.50;5051532;28;20221;-63
2022/12/24 05:47:28;;;;;;;7.57;2.57;;;9.50;99.90;;;-141.84;79.04;18395.50;5044045;28;20229;-64
2022/12/24 05:49:57;;;;;;;5.50;2.33;;;9.40;99.90;;;-141.84;79.12;18411.75;5063246;28;20235;-64
2022/12/24 05:52:25;;;;;;;5.70;2.57;;;9.30;99.90;;;-141.84;78.53;18415.81;5071561;28;20264;-63
2022/12/24 05:54:53;;;;;;;6.90;2.10;;;9.30;99.90;;;-141.84;78.45;18393.47;5064172;28;20236;-64
2022/12/24 05:57:22;;;;;;;10.03;2.67;;;9.30;99.90;;;-141.84;78.92;18395.50;5050869;28;20239;-63
2022/12/24 05:59:50;;;;;;;8.00;2.50;;;9.20;99.90;;;-141.84;78.49;18407.69;5051340;28;20225;-63
2022/12/24 06:02:18;;;;;;;6.70;2.87;;;9.20;99.90;;;-141.84;77.62;18452.41;5050929;28;20240;-64
2022/12/24 06:04:46;;;;;;;4.70;2.20;;;9.20;99.90;;;-141.84;77.65;18413.78;5050923;28;20591;-63
2022/12/24 06:07:16;;;;;;;7.27;2.53;;;9.20;99.90;;;-141.84;76.95;18440.22;5051066;28;20251;-64
2022/12/24 06:09:44;;;;;;;9.47;2.60;;;9.20;99.90;;;-141.84;77.42;18411.75;5050238;28;20263;-64
2022/12/24 06:12:12;;;;;;;6.13;2.47;;;9.20;99.90;;;-141.84;75.56;18470.69;5050837;28;20224;-64
2022/12/24 06:14:40;;;;;;;9.63;2.80;;;9.30;99.90;;;-141.84;76.14;18423.94;5051106;28;20225;-63
2022/12/24 06:17:08;;;;;;;8.77;2.40;;;9.30;99.90;;;-141.84;75.68;18450.38;5050654;28;20224;-63
2022/12/24 06:19:36;;;;;;;6.67;2.97;;;9.30;99.90;;;-141.84;75.54;18448.34;5050829;28;20217;-63
2022/12/24 06:22:04;;;;;;;7.10;3.33;;;9.30;99.90;;;-141.84;75.40;18464.59;5051343;28;20201;-63
2022/12/24 06:24:34;;;;;;;9.17;2.80;;;9.40;99.90;;;-141.84;76.05;18442.25;5050835;28;20221;-63
2022/12/24 06:27:02;;;;;;;8.83;2.67;;;9.30;99.90;;;-141.84;76.01;18480.84;5050574;28;20229;-64
2022/12/24 06:29:30;;;;;;;7.60;2.70;;;9.30;99.90;;;-141.84;75.92;18456.47;5050929;28;20307;-63
2022/12/24 06:31:59;;;;;;;6.07;2.30;;;9.30;99.90;;;-141.84;75.77;18497.09;5050664;28;20229;-64
2022/12/24 06:34:27;;;;;;;8.87;2.90;;;9.20;99.90;;;-141.84;74.87;18505.22;5051338;28;20208;-62
2022/12/24 06:36:55;;;;;;;9.30;2.90;;;9.30;99.90;;;-141.84;75.00;18511.31;5050631;28;20312;-63
2022/12/24 06:39:24;;;;;;;9.20;2.83;;;9.30;99.90;;;-141.84;74.38;18488.97;5050926;28;20236;-64
2022/12/24 06:41:54;;;;;;;7.87;2.60;;;9.30;99.90;;;-141.84;73.94;18501.16;5050570;28;20225;-64
2022/12/24 06:44:22;;;;;;;10.30;2.67;;;9.30;99.90;;;-141.84;72.94;18535.69;5050756;28;20233;-64
2022/12/24 06:46:50;;;;;;;11.30;3.03;;;9.40;99.90;;;-141.84;73.59;18525.53;5048785;28;20720;-63
2022/12/24 06:49:19;;;;;;;9.00;2.90;;;9.40;99.90;;;-141.84;73.40;18543.81;5061555;28;20226;-62
2022/12/24 06:51:47;;;;;;;10.53;2.67;;;9.50;99.90;;;-141.84;73.42;18507.25;5070367;28;20240;-54
2022/12/24 06:54:15;;;;;;;7.13;2.57;;;9.40;99.90;;;-141.84;74.50;18505.22;5069183;28;20223;-55
2022/12/24 06:56:43;;;;;;;9.07;2.97;;;9.30;99.90;;;-141.84;75.01;18464.59;5050595;28;20241;-54
2022/12/24 06:59:12;;;;;;;9.77;3.27;;;9.30;99.90;;;-141.84;74.72;18495.06;5050748;28;20225;-56
2022/12/24 07:01:40;;;;;;;8.93;3.00;;;9.20;99.90;;;-141.84;74.36;18493.03;5050602;28;20220;-56
2022/12/24 07:04:09;;;;;;;6.33;2.27;;;9.20;99.90;;;-141.84;73.87;18519.44;5051229;28;20298;-57
2022/12/24 07:06:47;;;;;;;8.67;2.47;;;9.20;99.90;;;-141.84;73.83;18503.19;5050145;28;20237;-55
2022/12/24 07:09:15;;;;;;;6.30;2.50;;;9.30;99.90;;;-141.84;73.68;18521.47;5050742;28;20234;-56
2022/12/24 07:11:43;;;;;;;7.03;2.47;;;9.20;99.90;;;-141.84;74.20;18525.53;5050675;28;20252;-58
2022/12/24 07:14:13;;;;;;;8.27;2.83;;;9.20;99.90;;;-141.84;74.02;18519.44;5050177;28;20229;-56
2022/12/24 07:16:41;;;;;;;5.63;2.00;;;9.20;99.90;;;-141.84;74.20;18464.59;5050464;28;20201;-55
2022/12/24 07:19:09;;;;;;;6.40;2.50;;;9.10;99.90;;;-141.84;74.45;18476.78;5050974;28;20727;-55
2022/12/24 07:21:38;;;;;;;8.60;2.33;;;9.10;99.90;;;-141.84;75.33;18474.75;5053083;28;20225;-57
2022/12/24 07:24:06;;;;;;;4.77;2.10;;;9.00;99.90;;;-141.84;75.40;18436.16;5054244;28;20221;-52
2022/12/24 07:26:35;;;;;;;10.97;2.27;;;8.90;99.90;;;-141.84;75.27;18491.00;5053978;28;20232;-57
2022/12/24 07:29:03;;;;;;;9.70;2.33;;;8.90;99.90;;;-141.84;75.52;18458.50;5054057;28;20225;-56
2022/12/24 07:31:32;;;;;;;7.03;2.27;;;8.80;99.90;;;-141.84;75.42;18484.91;5054027;28;20696;-55
2022/12/24 07:34:00;;;;;;;5.80;2.03;;;8.80;99.90;;;-141.84;75.79;18493.03;5054766;28;20199;-56
2022/12/24 07:36:29;;;;;;;6.40;2.13;;;8.80;99.90;;;-141.84;76.16;18438.19;5053781;28;20233;-56
2022/12/24 07:38:57;;;;;;;5.27;2.10;;;8.70;99.90;;;-141.84;76.49;18454.44;5053714;28;20231;-57
2022/12/24 07:41:25;;;;;;;7.20;2.07;;;8.70;99.90;;;-141.84;76.96;18442.25;5053996;28;20252;-55
2022/12/24 07:43:53;;;;;;;5.47;2.00;;;8.60;99.90;;;-141.84;77.69;18464.59;5053425;28;20240;-54
2022/12/24 07:46:22;;;;;;;6.23;2.00;;;8.60;99.90;;;-141.84;78.67;18452.41;5054512;28;20198;-56
2022/12/24 07:48:51;;;;;;;5.73;2.03;;;8.50;99.90;;;-141.84;79.15;18403.63;5053431;28;20724;-53
2022/12/24 07:51:19;;;;;;;9.50;2.43;;;8.50;99.90;;;-141.84;78.31;18452.41;5053407;28;20651;-56
2022/12/24 07:53:47;;;;;;;5.63;2.30;;;8.60;99.90;;;-141.84;77.69;18466.63;5053554;28;20229;-56
2022/12/24 07:56:16;;;;;;;4.60;1.53;;;8.70;99.90;;;-141.84;78.20;18440.22;5053110;28;20233;-58
2022/12/24 07:58:45;;;;;;;5.50;2.00;;;8.70;99.90;;;-141.84;77.99;18432.09;5053237;28;20297;-58
2022/12/24 08:01:13;;;;;;;8.00;2.60;;;8.70;99.90;;;-141.84;77.59;18450.38;5053925;28;20202;-59
2022/12/24 08:03:41;;;;;;;4.70;2.17;;;8.80;99.90;;;-141.84;77.11;18456.47;5053217;28;20264;-59
2022/12/24 08:06:11;;;;;;;6.07;2.20;;;8.90;99.90;;;-141.84;76.87;18466.63;5053227;28;20239;-58
2022/12/24 08:08:40;;;;;;;5.27;2.40;;;8.90;99.90;;;-141.84;76.15;18468.66;5053615;28;20233;-58
2022/12/24 08:11:08;;;;;;;6.70;2.50;;;9.00;99.90;;;-141.84;77.04;18499.13;5053093;28;20225;-57
2022/12/24 08:13:37;;;;;;;8.83;3.10;;;9.00;99.90;;;-141.84;76.20;18497.09;5053126;28;20198;-57
2022/12/24 08:16:06;;;;;;;7.37;2.83;;;9.10;99.90;;;-141.84;76.48;18484.91;5054147;28;20201;-59
2022/12/24 08:18:34;;;;;;;6.90;2.50;;;9.00;99.90;;;-141.84;75.09;18535.69;5053290;28;20229;-56
2022/12/24 08:21:03;;;;;;;7.57;2.70;;;9.10;99.90;;;-141.84;75.27;18486.94;5053170;28;20233;-58
2022/12/24 08:23:32;;;;;;;6.30;2.33;;;9.10;99.90;;;-141.84;74.96;18509.28;5053063;28;20233;-59
2022/12/24 08:26:00;;;;;;;5.20;2.10;;;9.10;99.90;;;-141.84;74.52;18515.38;5053201;28;20236;-57
2022/12/24 08:28:29;;;;;;;6.70;2.37;;;9.20;99.90;;;-141.84;75.42;18521.47;5053330;28;20201;-56
2022/12/24 08:30:58;;;;;;;6.53;2.87;;;9.10;99.90;;;-141.84;74.90;18523.50;5045225;28;20239;-58
2022/12/24 08:33:27;;;;;;;10.93;2.60;;;9.00;99.90;;;-141.84;75.35;18509.28;5051733;28;20229;-56
2022/12/24 08:35:56;;;;;;;6.73;2.40;;;9.00;99.90;;;-141.84;75.65;18478.81;5052696;28;20229;-56
2022/12/24 08:38:25;;;;;;;8.30;2.30;;;8.90;99.90;;;-141.84;75.45;18517.41;5052494;28;20233;-57
2022/12/24 08:40:55;;;;;;;11.20;2.53;;;8.80;99.90;;;-141.84;75.98;18468.66;5053000;28;20236;-57
2022/12/24 08:43:25;;;;;;;8.27;2.27;;;8.80;99.90;;;-141.84;75.24;18513.34;5051229;28;20233;-57
2022/12/24 08:45:54;;;;;;;7.67;2.67;;;8.80;99.90;;;-141.84;74.85;18505.22;5049257;28;20225;-60
2022/12/24 08:48:22;;;;;;;6.27;2.80;;;8.80;99.90;;;-141.84;75.33;18509.28;5040860;28;20229;-58
2022/12/24 08:50:50;;;;;;;10.43;2.73;;;8.80;99.90;;;-141.84;74.47;18517.41;5044242;28;20237;-57
2022/12/24 08:53:18;;;;;;;7.60;2.30;;;8.90;99.90;;;-141.84;73.76;18517.41;5044135;28;20734;-56
2022/12/24 08:55:47;;;;;;;6.03;2.90;;;9.00;99.90;;;-141.84;73.39;18525.53;5032828;28;20282;-56
2022/12/24 08:58:24;;;;;;;7.50;2.80;;;9.10;99.90;;;-141.84;73.54;18549.91;5052836;28;20233;-57
2022/12/24 09:00:52;;;;;;;8.50;2.60;;;9.10;99.90;;;-141.84;73.31;18521.47;5052259;28;20233;-59
2022/12/24 09:03:20;;;;;;;10.40;2.53;;;9.20;99.90;;;-141.84;73.45;18533.66;5052440;28;20237;-57
2022/12/24 09:05:55;;;;;;;7.60;2.53;;;9.20;99.90;;;-141.84;73.11;18521.47;5056590;28;20229;-57
2022/12/24 09:08:23;;;;;;;9.27;2.47;;;9.20;99.90;;;-141.84;73.01;18564.13;5072545;28;20251;-58
2022/12/24 09:10:51;;;;;;;8.93;3.13;;;9.30;99.90;;;-141.84;73.46;18545.84;5071996;28;20224;-58
2022/12/24 09:13:19;;;;;;;8.10;3.20;;;9.30;99.90;;;-141.84;74.46;18521.47;5072846;28;20204;-56
2022/12/24 09:15:55;;;;;;;7.17;2.73;;;9.30;99.90;;;-141.84;73.74;18558.03;5071904;28;20225;-57
2022/12/24 09:18:23;;;;;;;9.87;3.37;;;9.30;99.90;;;-141.84;72.84;18590.56;5071956;28;20220;-57
2022/12/24 09:20:52;;;;;;;8.50;2.70;;;9.40;99.90;;;-141.84;71.68;18598.69;5071937;28;20235;-58
2022/12/24 09:23:24;;;;;;;10.40;2.63;;;9.60;99.90;;;-141.84;71.54;18635.25;5052496;28;20229;-58
2022/12/24 09:25:52;;;;;;;15.10;3.80;;;9.70;99.90;;;-141.84;70.99;18675.88;5050142;28;20585;-56
2022/12/24 09:28:21;;;;;;;8.53;2.90;;;9.80;99.90;;;-141.84;71.09;18649.47;5052288;28;20205;-57
2022/12/24 09:31:00;;;;;;;10.87;2.90;;;9.90;99.90;;;-141.84;70.83;18681.97;5051756;28;20315;-58
2022/12/24 09:33:29;;;;;;;10.70;2.63;;;9.90;99.90;;;-141.84;70.62;18669.78;5051493;28;20221;-53
2022/12/24 09:35:58;;;;;;;8.57;2.83;;;10.00;99.90;;;-141.84;71.71;18635.25;5050918;28;20229;-57
2022/12/24 09:38:27;;;;;;;8.47;3.07;;;9.90;99.90;;;-141.84;71.95;18661.66;5051669;28;20237;-56
2022/12/24 09:40:58;;;;;;;9.43;2.97;;;9.80;99.90;;;-141.84;72.59;18635.25;5043089;28;20236;-57
2022/12/24 09:43:37;;;;;;;8.43;2.67;;;9.70;99.90;;;-141.84;72.71;18643.38;5051533;28;20181;-55
2022/12/24 09:46:16;;;;;;;11.97;4.07;;;9.70;99.90;;;-141.84;73.11;18635.25;5051687;28;20612;-55
2022/12/24 09:48:51;;;;;;;7.30;2.80;;;9.70;99.90;;;-141.84;72.91;18614.94;5053899;28;20286;-57
2022/12/24 09:51:29;;;;;;;8.03;2.67;;;9.60;99.90;;;-141.84;72.50;18643.38;5070927;28;20963;-57
2022/12/24 09:54:05;;;;;;;9.30;2.80;;;9.70;99.90;;;-141.84;72.59;18635.25;5071162;28;20225;-58
2022/12/24 09:56:40;;;;;;;9.70;2.80;;;9.70;99.90;;;-141.84;72.34;18612.91;5031225;28;20226;-59
2022/12/24 09:59:16;;;;;;;7.63;2.37;;;9.70;99.90;;;-141.84;72.26;18657.59;5031367;28;20237;-59
2022/12/24 10:01:54;;;;;;;10.43;2.80;;;9.80;99.90;;;-141.84;72.85;18614.94;5031945;28;20656;-58
2022/12/24 10:04:29;;;;;;;9.87;3.00;;;9.70;99.90;;;-141.84;73.29;18627.13;5051607;28;20567;-57
2022/12/24 10:07:11;;;;;;;7.97;2.30;;;9.60;99.90;;;-141.84;73.27;18627.13;5051083;28;20217;-52
2022/12/24 10:09:51;;;;;;;5.20;2.33;;;9.60;99.90;;;-141.84;73.64;18576.31;5051013;28;20224;-56
2022/12/24 10:12:31;;;;;;;8.47;2.60;;;9.50;99.90;;;-141.84;74.35;18582.44;5050959;28;20221;-56
2022/12/24 10:15:10;;;;;;;6.83;2.40;;;9.50;99.90;;;-141.84;74.69;18586.50;5043021;28;20224;-57
2022/12/24 10:18:02;;;;;;;5.17;2.20;;;9.50;99.90;;;-141.84;74.14;18631.19;5050662;28;20225;-57
2022/12/24 10:20:43;;;;;;;7.17;2.57;;;9.50;99.90;;;-141.84;73.17;18657.59;5050242;28;20234;-54
2022/12/24 10:23:23;;;;;;;7.80;2.73;;;9.70;99.90;;;-141.84;72.39;18661.66;5050633;28;20229;-57
2022/12/24 10:26:05;;;;;;;7.93;2.50;;;9.80;99.90;;;-141.84;71.80;18671.81;5050952;28;20242;-56
2022/12/24 10:28:43;;;;;;;4.63;1.93;;;10.00;99.90;;;-141.84;72.43;18637.28;5051053;28;20196;-57
2022/12/24 10:31:12;;;;;;;4.30;1.73;;;10.10;99.90;;;-141.84;72.53;18690.09;5051632;28;20208;-56
2022/12/24 10:33:45;;;;;;;5.73;2.00;;;10.20;99.90;;;-141.84;72.61;18692.13;5050816;28;20283;-55
2022/12/24 10:36:18;;;;;;;3.80;1.50;;;10.30;99.90;;;-141.84;70.73;18704.31;5049071;28;20231;-58